Union Hill, New York
Current Conditions -  °F | °C
As of 4:54 AM on Saturday 25 Oct 2014 (Local Time) from KROC Reporting Station
Haze Haze  
Wind Chill: 47°   Ceiling: 6000
Heat Index: 49°   Visibility: 6mi
Dew Point: 46°   Wind: 5mph
Humidity: 90%   Direction: 210°SSW
Pressure: 29.86"   Gusts: NA
Location:  43.22°N, 77.37°W
Report Text: KROC 250854Z 21004KT 6SM BR FEW040 OVC060 09/08 A2986 RMK AO2 SLP115 T00940078 58016
Loading
Personal Weather Stations






























Interactive Weather Map
Tropical Storm Tracking
New forecast layout! Learn more

10-Day Weather Forecast

Advertisements
Track Severe Weather on mobile